Time;durP1;ratioP1;P1;durP2;ratioP2;P2;SDS_P1;SDS_P2;PMS_P1;PMS_P2;Temp;Humidity;BMP_temperature;BMP_pressure;BME280_temperature;BME280_humidity;BME280_pressure;Samples;Min_cycle;Max_cycle;Signal;HPM_P1;HPM_P2
2022/10/21 00:01:40;;;;;;;9.68;4.60;;;;;;;5.58;95.28;97931.97;5004377;28;20472;-63
2022/10/21 00:04:06;;;;;;;9.02;4.82;;;;;;;5.47;95.88;97919.63;5006057;28;20491;-63
2022/10/21 00:06:33;;;;;;;11.75;5.45;;;;;;;6.00;96.72;97986.34;5020774;28;20493;-62
2022/10/21 00:09:00;;;;;;;7.65;5.00;;;;;;;6.14;96.06;98000.78;5004870;28;20531;-63
2022/10/21 00:11:27;;;;;;;8.77;5.10;;;;;;;6.21;95.14;97997.59;5005634;28;20547;-59
2022/10/21 00:13:53;;;;;;;10.15;4.90;;;;;;;6.15;95.06;97996.91;5003464;28;20148;-57
2022/10/21 00:16:20;;;;;;;10.70;4.28;;;;;;;6.05;95.29;97995.25;5005867;28;20153;-60
2022/10/21 00:18:47;;;;;;;11.05;4.50;;;;;;;6.05;95.23;97997.22;5020824;28;20085;-63
2022/10/21 00:21:20;;;;;;;6.82;4.20;;;;;;;6.06;95.08;97993.31;5020815;28;20583;-63
2022/10/21 00:23:48;;;;;;;7.22;4.22;;;;;;;5.98;95.65;97996.84;5005682;28;20160;-63
2022/10/21 00:26:16;;;;;;;10.15;4.93;;;;;;;5.97;95.35;97996.03;5005852;28;20531;-63
2022/10/21 00:28:43;;;;;;;7.00;4.20;;;;;;;5.96;95.89;97994.41;5005483;28;20085;-63
2022/10/21 00:31:12;;;;;;;7.63;4.88;;;;;;;6.01;94.60;97985.19;5005458;28;20140;-63
2022/10/21 00:33:38;;;;;;;14.85;5.80;;;;;;;6.03;94.09;97993.94;5020479;28;20141;-58
2022/10/21 00:36:13;;;;;;;8.20;4.65;;;;;;;5.51;94.07;97931.59;5019943;28;20516;-58
2022/10/21 00:38:43;;;;;;;10.35;4.55;;;;;;;5.76;95.12;97986.69;5004987;28;20143;-62
2022/10/21 00:41:12;;;;;;;11.07;4.65;;;;;;;5.61;95.34;97991.78;5004815;28;20054;-63
2022/10/21 00:43:52;;;;;;;7.60;4.68;;;;;;;5.61;96.48;97997.28;5005038;28;20141;-63
2022/10/21 00:46:41;;;;;;;7.30;3.47;;;;;;;5.59;96.57;97988.53;5005116;28;20096;-63
2022/10/21 00:49:22;;;;;;;8.25;3.83;;;;;;;5.68;96.35;97992.13;4997771;28;20057;-63
2022/10/21 00:51:53;;;;;;;10.57;4.50;;;;;;;5.69;96.15;97982.78;5019721;28;20140;-64
2022/10/21 00:54:22;;;;;;;8.10;4.13;;;;;;;5.03;96.99;97881.22;5004741;28;20497;-59
2022/10/21 00:56:50;;;;;;;8.05;3.95;;;;;;;5.71;97.20;97991.50;5005061;28;20101;-57
2022/10/21 00:59:18;;;;;;;7.47;4.40;;;;;;;5.25;96.05;97900.44;5005138;28;20103;-60
2022/10/21 01:01:45;;;;;;;7.43;4.00;;;;;;;5.52;94.82;97934.03;5004892;28;20081;-58
2022/10/21 01:04:11;;;;;;;8.57;4.00;;;;;;;5.79;94.82;97974.25;5003471;28;20595;-63
2022/10/21 01:06:39;;;;;;;6.78;3.50;;;;;;;5.66;96.64;97983.38;5019659;28;20054;-58
2022/10/21 01:09:05;;;;;;;7.57;4.22;;;;;;;5.56;97.26;97979.00;5005327;28;20054;-63
2022/10/21 01:11:40;;;;;;;8.50;3.90;;;;;;;5.57;97.59;97968.81;5019834;28;20053;-63
2022/10/21 01:14:44;;;;;;;9.32;4.32;;;;;;;5.54;97.38;97969.44;5004891;28;20057;-58
2022/10/21 01:17:33;;;;;;;6.25;3.38;;;;;;;5.59;97.25;97977.53;5004584;28;20177;-57
2022/10/21 01:20:43;;;;;;;7.32;4.00;;;;;;;5.61;96.57;97975.31;5000464;28;20061;-58
2022/10/21 01:23:12;;;;;;;5.50;3.58;;;;;;;5.59;96.86;97966.56;4990635;28;20161;-57
2022/10/21 01:26:16;;;;;;;7.15;3.70;;;;;;;5.63;96.94;97968.34;5004380;28;20099;-59
2022/10/21 01:28:54;;;;;;;9.15;4.60;;;;;;;5.61;96.12;97970.59;5004664;28;20140;-57
2022/10/21 01:31:55;;;;;;;10.60;4.35;;;;;;;5.67;95.95;97969.34;5003369;28;20256;-59
2022/10/21 01:34:37;;;;;;;7.18;4.22;;;;;;;5.35;95.42;97927.63;5004791;28;20086;-58
2022/10/21 01:37:09;;;;;;;7.82;4.22;;;;;;;5.62;95.64;97971.41;5004678;28;20141;-62
2022/10/21 01:39:40;;;;;;;9.13;4.10;;;;;;;5.57;94.89;97971.56;5019284;28;20656;-62
2022/10/21 01:42:29;;;;;;;6.78;3.85;;;;;;;5.47;96.33;97963.59;5004499;28;20662;-57
2022/10/21 01:45:02;;;;;;;7.30;3.60;;;;;;;5.48;96.95;97965.19;5004272;28;20140;-58
2022/10/21 01:47:37;;;;;;;8.48;3.53;;;;;;;5.24;97.59;97953.75;5004853;28;20053;-63
2022/10/21 01:50:11;;;;;;;9.60;4.53;;;;;;;5.44;97.23;97975.19;5003222;28;20100;-57
2022/10/21 01:52:43;;;;;;;7.80;4.43;;;;;;;5.35;96.08;97982.56;5004367;28;20049;-58
2022/10/21 01:55:15;;;;;;;9.55;3.80;;;;;;;5.33;96.17;97984.81;5019259;28;20144;-62
2022/10/21 01:57:48;;;;;;;10.57;4.00;;;;;;;5.27;97.05;97986.91;5002810;28;20469;-62
2022/10/21 02:00:15;;;;;;;9.07;3.53;;;;;;;5.16;96.80;97962.72;5004076;28;20085;-63
2022/10/21 02:02:46;;;;;;;6.35;4.15;;;;;;;5.23;96.60;97982.34;5004524;28;20056;-62
2022/10/21 02:05:18;;;;;;;10.15;5.32;;;;;;;5.21;97.97;97981.84;5004463;28;20068;-57
2022/10/21 02:07:45;;;;;;;8.75;4.90;;;;;;;5.12;98.15;97968.03;5004154;28;20085;-57
2022/10/21 02:10:12;;;;;;;10.32;5.20;;;;;;;5.19;97.36;97973.91;5004132;28;20771;-58
2022/10/21 02:12:42;;;;;;;18.02;6.80;;;;;;;5.33;96.05;97982.06;5004306;28;20050;-58
2022/10/21 02:15:12;;;;;;;14.88;7.53;;;;;;;4.98;95.29;97941.78;5003863;28;20088;-57
2022/10/21 02:17:43;;;;;;;20.45;10.75;;;;;;;5.35;95.12;97993.56;5003957;28;20511;-59
2022/10/21 02:20:12;;;;;;;21.98;12.82;;;;;;;2.91;94.75;97599.72;5004402;28;20078;-57
2022/10/21 02:22:42;;;;;;;20.40;11.95;;;;;;;5.02;95.39;97929.03;5003984;28;20137;-57
2022/10/21 02:25:21;;;;;;;20.23;10.20;;;;;;;5.41;94.98;97992.31;5002909;28;20081;-59
2022/10/21 02:27:48;;;;;;;14.05;8.02;;;;;;;5.37;95.68;97991.31;5004344;28;20078;-62
2022/10/21 02:30:15;;;;;;;10.35;5.55;;;;;;;5.37;95.77;97989.41;5004097;28;20156;-62
2022/10/21 02:33:17;;;;;;;8.98;4.78;;;;;;;4.97;96.73;97942.91;5007055;28;20156;-57
2022/10/21 02:36:14;;;;;;;5.82;3.15;;;;;;;5.46;95.46;97986.69;5007316;28;20494;-58
2022/10/21 02:38:50;;;;;;;8.90;3.40;;;;;;;5.47;94.86;97985.56;5007693;28;20166;-57
2022/10/21 02:41:22;;;;;;;5.25;2.95;;;;;;;5.34;95.40;97991.94;5006899;28;20140;-57
2022/10/21 02:43:55;;;;;;;7.40;2.85;;;;;;;5.33;96.05;97991.13;5007826;28;20084;-57
2022/10/21 02:46:23;;;;;;;5.03;2.53;;;;;;;5.30;96.03;97996.44;5007714;28;20157;-58
2022/10/21 02:48:49;;;;;;;6.20;3.03;;;;;;;5.19;95.61;97973.91;5007885;28;20102;-62
2022/10/21 02:51:16;;;;;;;5.47;2.58;;;;;;;4.87;96.19;97937.66;5007528;28;20133;-63
2022/10/21 02:53:43;;;;;;;5.90;3.33;;;;;;;4.91;95.34;97938.66;5007324;28;20140;-57
2022/10/21 02:56:09;;;;;;;13.98;5.60;;;;;;;5.16;94.39;98006.66;5007274;28;20574;-58
2022/10/21 02:58:36;;;;;;;23.92;11.88;;;;;;;5.11;94.54;97998.56;5007220;28;20088;-57
2022/10/21 03:01:03;;;;;;;16.35;8.90;;;;;;;4.99;94.37;97990.91;5006688;28;20508;-63
2022/10/21 03:03:29;;;;;;;14.15;7.22;;;;;;;5.10;94.67;98005.19;5022207;28;20140;-62
2022/10/21 03:05:57;;;;;;;13.65;5.50;;;;;;;5.07;95.49;98009.38;5006723;28;20508;-62
2022/10/21 03:08:23;;;;;;;16.13;5.20;;;;;;;5.09;96.87;98006.31;5007009;28;20089;-57
2022/10/21 03:10:51;;;;;;;9.52;4.18;;;;;;;5.11;97.30;98009.53;5006529;28;20190;-63
2022/10/21 03:13:20;;;;;;;9.02;4.47;;;;;;;5.16;96.62;98006.66;5006909;28;20046;-57
2022/10/21 03:15:48;;;;;;;9.05;3.67;;;;;;;4.94;96.39;97970.97;5006372;28;20508;-62
2022/10/21 03:18:15;;;;;;;6.40;3.00;;;;;;;5.18;96.41;98015.41;5006404;28;20578;-57
2022/10/21 03:20:42;;;;;;;7.40;3.40;;;;;;;5.19;96.32;98014.28;5006300;28;20090;-59
2022/10/21 03:23:09;;;;;;;7.68;3.72;;;;;;;4.95;96.86;97991.84;5006575;28;20081;-57
2022/10/21 03:25:36;;;;;;;13.32;6.78;;;;;;;5.02;96.70;98017.72;5006865;28;20053;-57
2022/10/21 03:28:02;;;;;;;15.32;9.70;;;;;;;4.87;98.20;98020.81;5006813;28;20053;-62
2022/10/21 03:30:29;;;;;;;20.55;10.02;;;;;;;5.06;96.68;98039.88;5006940;28;20132;-62
2022/10/21 03:32:55;;;;;;;23.20;12.25;;;;;;;5.02;95.97;98028.72;5006126;28;20088;-62
2022/10/21 03:35:22;;;;;;;15.85;10.00;;;;;;;5.02;96.02;98034.19;5006239;28;20587;-57
2022/10/21 03:37:48;;;;;;;10.32;6.85;;;;;;;5.01;96.86;98029.81;5006218;28;20073;-60
2022/10/21 03:40:16;;;;;;;10.40;5.88;;;;;;;5.02;97.08;98034.19;5006382;28;20058;-58
2022/10/21 03:42:42;;;;;;;9.35;4.75;;;;;;;5.03;97.23;98029.50;5005872;28;20054;-56
2022/10/21 03:45:10;;;;;;;6.97;4.10;;;;;;;5.04;97.57;98031.16;5004572;28;20614;-59
2022/10/21 03:47:37;;;;;;;7.55;3.30;;;;;;;4.98;97.70;98030.44;5006009;28;20154;-58
2022/10/21 03:50:05;;;;;;;4.60;3.15;;;;;;;4.99;97.28;98023.03;5005808;28;20141;-57
2022/10/21 03:52:37;;;;;;;9.07;3.08;;;;;;;4.88;96.27;97994.19;5006126;28;20099;-57
2022/10/21 03:55:05;;;;;;;10.68;3.53;;;;;;;5.05;95.98;98021.78;5006087;28;20052;-62
2022/10/21 03:57:32;;;;;;;7.40;3.17;;;;;;;4.25;96.23;97899.06;5006102;28;20124;-56
2022/10/21 03:59:58;;;;;;;9.40;3.60;;;;;;;4.97;97.04;98026.06;5020972;28;20085;-62
2022/10/21 04:02:25;;;;;;;11.07;4.95;;;;;;;5.01;97.18;98050.97;5005730;28;20049;-61
2022/10/21 04:04:52;;;;;;;14.07;7.07;;;;;;;5.07;95.89;98041.50;5005901;28;20600;-57
2022/10/21 04:07:18;;;;;;;13.32;6.40;;;;;;;5.07;95.01;98027.78;5006192;28;20612;-56
2022/10/21 04:09:45;;;;;;;16.00;7.70;;;;;;;5.05;95.18;98038.25;5020924;28;20141;-58
2022/10/21 04:12:12;;;;;;;19.17;9.60;;;;;;;4.92;95.74;98028.13;5005923;28;20608;-62
2022/10/21 04:14:39;;;;;;;14.02;6.32;;;;;;;5.08;95.25;98032.13;5005418;28;20489;-57
2022/10/21 04:17:05;;;;;;;10.52;6.68;;;;;;;5.03;95.34;98029.50;5005644;28;20137;-58
2022/10/21 04:19:33;;;;;;;13.65;7.32;;;;;;;5.06;95.01;98028.91;5020360;28;20493;-61
2022/10/21 04:22:00;;;;;;;18.13;9.60;;;;;;;4.60;95.15;97955.84;5005465;28;20089;-57
2022/10/21 04:24:26;;;;;;;12.15;7.40;;;;;;;5.05;94.14;98093.16;5005311;28;20141;-61
2022/10/21 04:26:53;;;;;;;16.42;7.25;;;;;;;4.97;93.86;98025.25;5005548;28;20146;-58
2022/10/21 04:29:19;;;;;;;11.02;5.93;;;;;;;4.99;94.90;98017.53;5005230;28;20085;-57
2022/10/21 04:31:46;;;;;;;14.55;5.80;;;;;;;5.06;94.60;98026.94;5005634;28;20162;-61
2022/10/21 04:34:13;;;;;;;18.88;6.38;;;;;;;4.83;91.90;98035.47;5020227;28;20521;-59
2022/10/21 04:36:39;;;;;;;15.95;5.40;;;;;;;3.83;91.70;97896.69;5005161;28;20086;-56
2022/10/21 04:39:06;;;;;;;14.38;5.72;;;;;;;3.94;92.93;97996.78;5005187;28;20136;-57
2022/10/21 04:41:33;;;;;;;12.32;5.28;;;;;;;4.33;93.01;98032.69;5004787;28;20111;-64
2022/10/21 04:44:01;;;;;;;7.88;3.75;;;;;;;2.39;95.13;97690.50;5005164;28;20093;-57
2022/10/21 04:46:27;;;;;;;8.50;3.70;;;;;;;4.37;97.42;98014.53;5004901;28;20144;-63
2022/10/21 04:48:54;;;;;;;6.28;3.15;;;;;;;4.60;98.16;98027.19;5005070;28;20046;-62
2022/10/21 04:51:20;;;;;;;10.88;3.83;;;;;;;4.74;97.89;98021.69;5004905;28;20227;-61
2022/10/21 04:53:47;;;;;;;12.38;3.50;;;;;;;4.69;97.86;98030.81;5004649;28;20132;-64
2022/10/21 04:56:14;;;;;;;8.25;3.42;;;;;;;4.70;97.91;98028.91;5019546;28;20077;-57
2022/10/21 04:58:40;;;;;;;7.70;4.45;;;;;;;4.82;98.01;98033.84;4993525;28;22307;-57
2022/10/21 05:01:07;;;;;;;10.63;4.72;;;;;;;4.88;97.87;98024.38;4970094;28;85083;-61
2022/10/21 05:03:34;;;;;;;9.13;4.35;;;;;;;4.83;97.15;98000.59;4985138;28;20566;-60
2022/10/21 05:06:00;;;;;;;11.27;4.72;;;;;;;5.06;96.03;98028.91;4985110;28;20306;-57
2022/10/21 05:08:27;;;;;;;8.13;4.45;;;;;;;5.07;95.89;98028.59;4985475;28;20604;-61
2022/10/21 05:10:59;;;;;;;15.90;3.95;;;;;;;5.11;95.44;98031.50;4983497;28;20576;-61
2022/10/21 05:13:27;;;;;;;16.77;4.05;;;;;;;5.14;94.60;98041.91;4985675;28;20081;-57
2022/10/21 05:16:01;;;;;;;18.55;5.63;;;;;;;5.08;95.06;98043.13;4985155;28;20065;-60
2022/10/21 05:18:29;;;;;;;10.93;4.57;;;;;;;5.09;94.87;98039.25;4985236;28;20053;-62
2022/10/21 05:20:56;;;;;;;11.45;5.00;;;;;;;5.10;94.36;98040.88;4989940;28;20172;-60
2022/10/21 05:23:24;;;;;;;11.07;4.25;;;;;;;5.06;95.10;98028.91;4985011;28;20528;-61
2022/10/21 05:25:51;;;;;;;10.27;5.95;;;;;;;5.27;94.76;98041.00;4985345;28;20141;-61
2022/10/21 05:28:18;;;;;;;25.27;11.02;;;;;;;5.29;93.89;98044.25;4985037;28;20141;-60
2022/10/21 05:30:45;;;;;;;21.02;10.50;;;;;;;5.10;93.52;98029.91;4985273;28;20163;-57
2022/10/21 05:33:12;;;;;;;26.48;10.63;;;;;;;5.23;95.05;98032.56;4985198;28;20149;-60
2022/10/21 05:35:38;;;;;;;21.67;8.07;;;;;;;5.54;93.62;98057.38;4985401;28;20137;-58
2022/10/21 05:38:05;;;;;;;12.90;6.68;;;;;;;5.50;92.41;98034.41;4985318;28;20531;-61
2022/10/21 05:40:32;;;;;;;16.95;9.52;;;;;;;5.66;91.77;98060.34;4985206;28;20091;-56
2022/10/21 05:42:59;;;;;;;23.33;10.10;;;;;;;5.83;89.80;98060.50;4983105;28;20082;-56
2022/10/21 05:45:25;;;;;;;17.30;7.60;;;;;;;5.85;89.65;98041.72;4984864;28;20109;-61
2022/10/21 05:47:52;;;;;;;23.45;8.93;;;;;;;4.38;90.03;97795.91;4983480;28;20050;-60
2022/10/21 05:50:19;;;;;;;17.75;7.70;;;;;;;5.20;89.78;97889.59;4985883;28;20058;-59
2022/10/21 05:52:46;;;;;;;12.00;5.63;;;;;;;5.46;88.78;97909.75;4965735;28;20118;-58
2022/10/21 05:55:13;;;;;;;18.33;7.30;;;;;;;5.15;88.00;97881.47;4976414;28;20754;-64
2022/10/21 05:57:39;;;;;;;25.55;8.52;;;;;;;5.44;87.84;97898.25;4972326;28;20061;-60
2022/10/21 06:00:07;;;;;;;17.63;6.55;;;;;;;5.72;87.37;97932.66;4970922;28;20057;-57
2022/10/21 06:02:34;;;;;;;9.10;6.30;;;;;;;5.50;86.52;97935.47;4970999;28;20061;-61
2022/10/21 06:05:00;;;;;;;12.50;5.78;;;;;;;5.65;86.09;97907.56;4975509;28;20058;-58
2022/10/21 06:07:27;;;;;;;11.70;6.38;;;;;;;6.30;86.63;97993.72;4998675;28;20084;-60
2022/10/21 06:09:54;;;;;;;14.23;6.68;;;;;;;6.41;85.95;97958.44;4989343;28;20050;-60
2022/10/21 06:12:20;;;;;;;19.00;7.32;;;;;;;6.66;84.41;97957.69;4987355;28;20051;-63
2022/10/21 06:14:47;;;;;;;12.88;6.60;;;;;;;7.54;84.19;98078.25;4988242;28;20090;-63
2022/10/21 06:17:14;;;;;;;13.05;8.02;;;;;;;7.60;83.62;98083.28;4986041;28;20054;-62
2022/10/21 06:19:40;;;;;;;18.15;7.13;;;;;;;5.36;83.21;97709.50;4988066;28;20062;-66
2022/10/21 06:22:10;;;;;;;14.63;6.65;;;;;;;8.11;82.37;98081.59;4976484;28;20137;-63
2022/10/21 06:24:36;;;;;;;16.75;7.57;;;;;;;8.09;82.48;98067.28;4987313;28;20141;-63
2022/10/21 06:27:03;;;;;;;11.70;7.00;;;;;;;8.32;82.77;98068.69;4988080;28;20066;-61
2022/10/21 06:29:30;;;;;;;14.43;7.20;;;;;;;8.62;81.93;98103.50;4981417;28;21191;-58
2022/10/21 06:31:56;;;;;;;9.27;5.85;;;;;;;8.89;81.10;98064.34;4977916;28;20406;-60
2022/10/21 06:34:24;;;;;;;7.50;4.70;;;;;;;9.11;80.52;98064.88;4986131;28;20936;-60
2022/10/21 06:36:50;;;;;;;14.18;4.70;;;;;;;9.25;79.62;98066.56;4982835;28;20058;-60
2022/10/21 06:39:17;;;;;;;130.65;48.58;;;;;;;9.37;80.00;98052.78;4968505;28;20064;-61
2022/10/21 06:41:43;;;;;;;10.57;6.45;;;;;;;9.51;78.55;98053.31;4968054;28;20142;-60
2022/10/21 06:44:10;;;;;;;10.35;5.60;;;;;;;9.37;78.46;97984.50;4978820;28;20594;-62
2022/10/21 06:46:36;;;;;;;8.32;5.35;;;;;;;10.25;77.84;98068.72;4967821;28;20593;-58
2022/10/21 06:49:03;;;;;;;9.27;5.80;;;;;;;10.36;75.22;98039.44;4983306;28;20053;-67
2022/10/21 06:51:30;;;;;;;10.82;5.72;;;;;;;9.71;74.95;98014.56;4987211;28;20098;-62
2022/10/21 06:53:58;;;;;;;10.30;5.80;;;;;;;10.08;75.51;98041.22;4978456;28;20090;-61
2022/10/21 06:56:26;;;;;;;8.02;5.95;;;;;;;10.15;75.65;98038.69;4967930;28;20055;-61
2022/10/21 06:58:56;;;;;;;16.25;7.43;;;;;;;10.44;75.92;98082.00;4980851;28;20090;-62
2022/10/21 07:01:27;;;;;;;13.27;7.63;;;;;;;10.70;75.14;98069.44;4983315;28;20055;-62
2022/10/21 07:04:07;;;;;;;15.77;9.88;;;;;;;10.49;73.70;97996.75;5000586;28;20109;-67
2022/10/21 07:06:34;;;;;;;18.95;9.05;;;;;;;11.12;73.10;98069.19;4983207;28;20077;-59
2022/10/21 07:09:01;;;;;;;15.85;8.85;;;;;;;10.50;72.09;97931.84;4976706;28;20104;-64
2022/10/21 07:11:27;;;;;;;15.70;8.10;;;;;;;11.54;71.19;98070.50;4986877;28;20502;-61
2022/10/21 07:13:55;;;;;;;18.08;8.35;;;;;;;11.49;70.54;98018.03;4973262;28;20086;-61
2022/10/21 07:16:28;;;;;;;13.52;6.50;;;;;;;11.51;69.73;97983.22;4982330;28;20049;-64
2022/10/21 07:18:55;;;;;;;19.88;7.35;;;;;;;12.20;69.39;98060.53;4982820;28;20050;-65
2022/10/21 07:21:24;;;;;;;19.13;9.60;;;;;;;11.67;68.89;97958.31;4979733;28;20058;-64
2022/10/21 07:23:52;;;;;;;11.63;6.68;;;;;;;12.36;67.74;98014.09;4986835;28;20046;-62
2022/10/21 07:26:26;;;;;;;19.17;8.27;;;;;;;12.80;67.32;98050.94;4975960;28;20539;-62
2022/10/21 07:28:54;;;;;;;13.60;6.18;;;;;;;12.72;67.65;97988.81;4967385;28;20082;-57
2022/10/21 07:31:21;;;;;;;14.38;6.93;;;;;;;13.24;65.84;98050.47;4965904;28;20514;-62
2022/10/21 07:33:47;;;;;;;10.85;5.45;;;;;;;13.36;65.69;98030.84;4974796;28;20129;-65
2022/10/21 07:36:19;;;;;;;21.27;6.15;;;;;;;13.55;64.96;98050.34;4977432;28;20093;-63
2022/10/21 07:38:47;;;;;;;11.93;6.07;;;;;;;11.90;63.74;97768.56;4986953;28;20058;-60
2022/10/21 07:41:22;;;;;;;13.50;6.38;;;;;;;13.94;63.67;98050.34;4986870;28;20626;-59
2022/10/21 07:43:50;;;;;;;16.70;5.82;;;;;;;14.06;62.84;98114.25;4997367;28;20061;-61
2022/10/21 07:46:19;;;;;;;13.05;4.30;;;;;;;14.09;62.60;98053.03;4967428;28;20370;-60
2022/10/21 07:48:46;;;;;;;10.55;4.00;;;;;;;13.88;61.83;97984.97;4978397;28;20146;-58
2022/10/21 07:51:14;;;;;;;10.13;4.25;;;;;;;14.42;61.45;98047.72;4986419;28;20516;-62
2022/10/21 07:53:41;;;;;;;6.95;3.70;;;;;;;13.97;61.15;98005.84;4986400;28;20141;-60
2022/10/21 07:56:15;;;;;;;9.18;2.55;;;;;;;14.02;59.97;97974.09;4981285;28;20129;-59
2022/10/21 07:58:43;;;;;;;14.85;3.33;;;;;;;14.63;60.19;98039.75;4989451;28;20100;-58
2022/10/21 08:01:10;;;;;;;10.38;3.58;;;;;;;14.68;59.67;98008.75;4984761;28;20062;-62
2022/10/21 08:03:37;;;;;;;6.88;3.55;;;;;;;15.04;58.37;98054.75;4973003;28;20665;-60
2022/10/21 08:06:06;;;;;;;7.57;3.45;;;;;;;14.96;57.79;98047.44;4965748;28;20145;-62
2022/10/21 08:08:33;;;;;;;8.35;4.07;;;;;;;15.04;58.39;98038.00;4978797;28;20123;-60
2022/10/21 08:11:02;;;;;;;4.75;2.63;;;;;;;15.37;57.23;98035.31;4969494;28;20625;-61
2022/10/21 08:13:33;;;;;;;6.75;2.97;;;;;;;15.11;56.82;97983.09;4966817;28;21210;-60
2022/10/21 08:16:03;;;;;;;8.63;2.80;;;;;;;15.00;56.45;98009.25;4981571;28;20058;-57
2022/10/21 08:18:30;;;;;;;6.32;3.20;;;;;;;15.61;55.66;98029.31;4966660;28;20078;-61
2022/10/21 08:20:56;;;;;;;10.18;3.30;;;;;;;14.97;55.93;97931.84;4972278;28;20086;-59
2022/10/21 08:23:25;;;;;;;5.57;3.40;;;;;;;15.80;56.47;98031.13;4984333;28;20634;-58
2022/10/21 08:25:54;;;;;;;6.15;2.88;;;;;;;15.53;55.00;98005.25;4985068;28;20143;-61
2022/10/21 08:28:22;;;;;;;3.92;2.70;;;;;;;14.82;54.87;97908.56;4985358;28;20595;-59
2022/10/21 08:30:50;;;;;;;10.73;3.40;;;;;;;15.77;55.29;98029.91;4981930;28;20134;-59
2022/10/21 08:33:16;;;;;;;5.60;2.70;;;;;;;15.38;56.46;98022.16;4983388;28;20050;-60
2022/10/21 08:35:43;;;;;;;6.22;3.40;;;;;;;14.88;56.58;97948.06;4984631;28;20148;-60
2022/10/21 08:38:11;;;;;;;5.35;3.10;;;;;;;15.03;57.27;98002.94;4985572;28;20097;-61
2022/10/21 08:40:43;;;;;;;7.53;3.53;;;;;;;15.02;57.63;98012.47;4983424;28;20053;-63
2022/10/21 08:43:19;;;;;;;7.18;2.83;;;;;;;14.53;59.48;98028.38;4979185;28;20108;-58
2022/10/21 08:46:06;;;;;;;5.68;3.08;;;;;;;14.36;60.17;98017.75;5005111;28;20050;-61
2022/10/21 08:48:41;;;;;;;9.10;3.20;;;;;;;14.20;60.66;98030.94;4980207;28;20153;-64
2022/10/21 08:51:21;;;;;;;19.60;3.70;;;;;;;13.68;63.21;98029.56;4965520;28;20050;-59
2022/10/21 08:53:52;;;;;;;20.05;3.67;;;;;;;13.36;62.93;97936.22;4977490;28;20086;-63
2022/10/21 08:56:19;;;;;;;5.53;3.13;;;;;;;13.12;64.46;97997.69;4967063;28;20478;-60
2022/10/21 08:58:50;;;;;;;8.05;2.75;;;;;;;13.50;64.16;98031.16;4966148;28;20162;-59
2022/10/21 09:01:41;;;;;;;7.07;3.45;;;;;;;13.38;64.60;98017.38;4999059;28;20124;-63
2022/10/21 09:04:33;;;;;;;42.25;23.58;;;;;;;13.56;64.90;98014.97;4978512;28;20576;-60
2022/10/21 09:07:09;;;;;;;7.30;4.53;;;;;;;14.14;63.69;98019.31;4978449;28;20078;-60
2022/10/21 09:09:44;;;;;;;12.85;8.60;;;;;;;13.83;61.10;97887.78;4985529;28;20250;-60
2022/10/21 09:12:38;;;;;;;11.25;5.75;;;;;;;14.89;59.89;98008.28;4979544;28;20079;-61
2022/10/21 09:15:24;;;;;;;;;;;;;;;15.09;58.87;98012.59;4963024;28;20145;-58
2022/10/21 09:17:55;;;;;;;10.57;5.70;;;;;;;14.80;57.96;97910.09;4981613;28;20396;-60
2022/10/21 09:20:47;;;;;;;12.45;7.25;;;;;;;15.83;56.92;97996.84;4983185;28;20129;-59
2022/10/21 09:23:51;;;;;;;12.55;6.32;;;;;;;15.93;55.66;98002.53;4982935;28;20529;-59
2022/10/21 09:26:26;;;;;;;10.55;5.97;;;;;;;15.93;54.44;97998.97;4977778;28;20093;-59
2022/10/21 09:28:56;;;;;;;14.77;6.47;;;;;;;15.88;55.10;97994.53;4978624;28;20054;-58
2022/10/21 09:31:23;;;;;;;11.85;6.55;;;;;;;15.94;54.82;97997.75;4999407;28;20086;-59
2022/10/21 09:33:57;;;;;;;8.73;5.75;;;;;;;15.60;54.72;97899.19;4984613;28;20078;-59
2022/10/21 09:36:36;;;;;;;8.23;6.47;;;;;;;16.09;54.13;97977.97;4984706;28;20085;-59
2022/10/21 09:39:15;;;;;;;11.13;5.25;;;;;;;16.16;53.39;97978.03;4984927;28;20376;-59
2022/10/21 09:41:45;;;;;;;34.85;7.22;;;;;;;16.05;53.69;97979.94;4986282;28;20061;-59
2022/10/21 09:44:22;;;;;;;8.82;4.82;;;;;;;16.15;53.72;97982.03;4986389;28;20133;-60
2022/10/21 09:46:50;;;;;;;9.95;5.57;;;;;;;16.03;53.19;97934.78;4988904;28;20054;-61
2022/10/21 09:49:31;;;;;;;11.60;6.80;;;;;;;15.47;52.92;97850.41;4971038;28;20160;-58
2022/10/21 09:52:20;;;;;;;9.52;5.50;;;;;;;16.06;52.46;97886.50;4967890;28;20051;-61
2022/10/21 09:54:48;;;;;;;8.45;5.70;;;;;;;16.73;51.75;97968.19;4980363;28;20133;-59
2022/10/21 09:57:50;;;;;;;8.00;5.50;;;;;;;17.01;51.67;97962.00;4988366;28;20058;-61
2022/10/21 10:00:17;;;;;;;8.10;5.40;;;;;;;16.82;50.17;97909.09;4988445;28;20421;-63
2022/10/21 10:02:46;;;;;;;9.85;6.15;;;;;;;16.66;50.58;97894.59;4986509;28;20050;-62
2022/10/21 10:05:49;;;;;;;10.57;5.63;;;;;;;17.14;50.39;97950.09;4981768;28;20058;-61
2022/10/21 10:08:47;;;;;;;7.90;6.03;;;;;;;17.22;50.20;97945.31;4982456;28;20605;-60
2022/10/21 10:11:21;;;;;;;7.72;5.97;;;;;;;16.71;51.74;97941.81;4968785;28;20051;-59
2022/10/21 10:13:51;;;;;;;13.55;8.32;;;;;;;16.47;50.95;97878.91;4972136;28;20059;-57
2022/10/21 10:16:24;;;;;;;8.40;6.43;;;;;;;16.70;52.24;97934.59;4967236;28;20137;-62
2022/10/21 10:19:08;;;;;;;10.10;6.43;;;;;;;16.26;50.92;97797.59;4968483;28;20745;-60
2022/10/21 10:21:35;;;;;;;9.65;5.82;;;;;;;17.43;50.15;97934.22;4967196;28;20133;-59
2022/10/21 10:24:04;;;;;;;9.07;6.70;;;;;;;17.41;49.76;97919.81;4976485;28;20140;-62
2022/10/21 10:26:41;;;;;;;8.50;5.40;;;;;;;15.99;51.19;97805.41;4973526;28;20059;-58
2022/10/21 10:29:21;;;;;;;7.57;5.88;;;;;;;16.38;52.30;97918.34;4985913;28;20054;-56
2022/10/21 10:31:51;;;;;;;8.30;5.68;;;;;;;15.21;53.26;97797.41;4986476;28;20137;-58
2022/10/21 10:34:46;;;;;;;10.55;5.75;;;;;;;16.09;52.64;97882.94;4976598;28;20165;-60
2022/10/21 10:37:18;;;;;;;8.48;6.07;;;;;;;16.34;52.77;97889.53;4968506;28;20520;-59
2022/10/21 10:39:49;;;;;;;8.60;5.50;;;;;;;16.75;51.78;97897.84;4969430;28;20852;-58
2022/10/21 10:42:22;;;;;;;10.82;6.28;;;;;;;16.60;51.81;97894.97;4967753;28;20492;-60
2022/10/21 10:44:59;;;;;;;9.50;6.53;;;;;;;16.53;51.55;97880.91;4989948;28;20054;-60
2022/10/21 10:47:29;;;;;;;10.02;6.22;;;;;;;16.70;51.17;97861.84;4987512;28;20152;-60
2022/10/21 10:49:56;;;;;;;8.88;5.45;;;;;;;16.97;50.22;97863.19;4987234;28;20568;-62
2022/10/21 10:52:23;;;;;;;8.07;6.20;;;;;;;17.35;50.09;97946.59;4979466;28;20054;-63
2022/10/21 10:55:16;;;;;;;7.95;5.85;;;;;;;17.20;49.91;97880.53;4968540;28;20050;-60
2022/10/21 10:57:47;;;;;;;6.45;5.22;;;;;;;17.05;50.11;97884.44;4961173;28;20142;-59
2022/10/21 11:00:40;;;;;;;11.68;6.22;;;;;;;16.52;50.42;97801.00;4968492;28;20115;-57
2022/10/21 11:03:13;;;;;;;9.52;6.00;;;;;;;17.03;50.37;97875.63;4984652;28;20054;-59
2022/10/21 11:05:46;;;;;;;11.45;6.25;;;;;;;17.01;50.16;97872.44;5001608;28;20561;-58
2022/10/21 11:08:12;;;;;;;8.32;6.43;;;;;;;17.28;49.87;97865.34;4968020;28;20228;-59
2022/10/21 11:10:44;;;;;;;10.35;6.50;;;;;;;17.30;49.53;97832.13;4987379;28;20077;-58
2022/10/21 11:13:15;;;;;;;12.25;6.38;;;;;;;17.84;48.86;97865.53;4986875;28;20058;-57
2022/10/21 11:15:47;;;;;;;12.95;6.60;;;;;;;17.83;48.47;97863.94;4986957;28;20057;-57
2022/10/21 11:18:26;;;;;;;7.78;6.35;;;;;;;18.17;48.06;97856.75;4985169;28;20058;-57
2022/10/21 11:21:20;;;;;;;9.25;5.82;;;;;;;18.34;47.46;97855.13;4986898;28;20058;-60
2022/10/21 11:23:56;;;;;;;11.43;5.60;;;;;;;18.37;46.93;97849.53;4986365;28;20057;-59
2022/10/21 11:26:32;;;;;;;13.73;6.25;;;;;;;17.33;48.91;97845.34;4986878;28;20066;-58
2022/10/21 11:29:12;;;;;;;9.93;6.30;;;;;;;17.71;48.26;97850.28;4985283;28;20448;-58
2022/10/21 11:32:18;;;;;;;8.25;6.15;;;;;;;18.00;47.35;97841.50;4986798;28;20096;-56
2022/10/21 11:34:52;;;;;;;9.57;6.10;;;;;;;18.23;46.86;97838.31;4946795;28;20625;-60
2022/10/21 11:37:26;;;;;;;;;;;;;;;18.18;47.17;97835.13;4969682;28;20141;-59
2022/10/21 11:39:53;;;;;;;9.80;5.93;;;;;;;18.34;46.96;97833.50;4967005;28;19984;-59
2022/10/21 11:42:22;;;;;;;12.80;6.85;;;;;;;18.46;46.53;97824.72;4965422;28;20078;-63
2022/10/21 11:45:07;;;;;;;11.07;6.30;;;;;;;18.59;46.39;97823.06;5003493;28;20077;-62
2022/10/21 11:47:48;;;;;;;10.48;6.00;;;;;;;18.81;45.78;97819.00;4996183;28;20113;-60
2022/10/21 11:50:15;;;;;;;8.25;5.50;;;;;;;18.94;45.49;97816.56;4966815;28;20130;-58
2022/10/21 11:52:47;;;;;;;8.73;5.82;;;;;;;19.02;44.66;97810.53;4988554;28;20062;-60
2022/10/21 11:55:34;;;;;;;5.83;5.23;;;;;;;19.13;44.30;97805.66;4986196;28;20077;-56